createdAt,value
2022-11-05T00:05:48.067Z,1016.2
2022-11-05T00:20:44.366Z,1016.3
2022-11-05T00:35:39.890Z,1016.5
2022-11-05T00:50:36.187Z,1016.8
2022-11-05T01:05:32.367Z,1017
2022-11-05T01:20:28.062Z,1017
2022-11-05T01:35:24.531Z,1017.2
2022-11-05T01:50:20.849Z,1017.3
2022-11-05T02:05:17.528Z,1017.5
2022-11-05T02:20:13.367Z,1017.6
2022-11-05T02:35:09.917Z,1017.7
2022-11-05T02:50:05.844Z,1017.7
2022-11-05T03:05:01.734Z,1017.8
2022-11-05T03:19:58.135Z,1017.8
2022-11-05T03:34:54.106Z,1017.8
2022-11-05T03:49:50.361Z,1017.9
2022-11-05T04:04:46.501Z,1018.1
2022-11-05T04:19:42.416Z,1018.3
2022-11-05T04:34:38.765Z,1018.4
2022-11-05T04:49:34.996Z,1018.5
2022-11-05T05:04:31.191Z,1018.5
2022-11-05T05:19:26.881Z,1018.6
2022-11-05T05:34:23.074Z,1018.7
2022-11-05T05:49:18.984Z,1018.8
2022-11-05T06:04:15.214Z,1018.9
2022-11-05T06:19:11.604Z,1019.1
2022-11-05T06:34:07.863Z,1019.3
2022-11-05T06:49:03.640Z,1019.5
2022-11-05T07:03:59.919Z,1019.8
2022-11-05T07:18:56.254Z,1019.9
2022-11-05T07:33:52.888Z,1020
2022-11-05T07:48:49.364Z,1020.2
2022-11-05T08:03:45.986Z,1020.3
2022-11-05T08:18:42.204Z,1020.5
2022-11-05T08:33:38.827Z,1020.5
2022-11-05T08:48:34.847Z,1020.6
2022-11-05T09:03:31.166Z,1020.5
2022-11-05T09:18:27.263Z,1020.5
2022-11-05T09:33:23.709Z,1020.5
2022-11-05T09:48:20.227Z,1020.6
2022-11-05T10:03:16.786Z,1020.6
2022-11-05T10:18:13.324Z,1020.7
2022-11-05T10:33:10.027Z,1020.7
2022-11-05T10:48:06.625Z,1020.7
2022-11-05T11:03:02.950Z,1020.7
2022-11-05T11:17:59.576Z,1020.7
2022-11-05T11:32:56.342Z,1020.6
2022-11-05T11:47:52.848Z,1020.6
2022-11-05T12:02:48.934Z,1020.6
2022-11-05T12:17:45.382Z,1020.6
2022-11-05T12:32:42.075Z,1020.6
2022-11-05T12:47:38.051Z,1020.6
2022-11-05T13:02:33.865Z,1020.5
2022-11-05T13:17:29.948Z,1020.4
2022-11-05T13:32:26.151Z,1020.4
2022-11-05T13:47:22.447Z,1020.2
2022-11-05T14:02:19.247Z,1020.3
2022-11-05T14:17:14.912Z,1020.1
2022-11-05T14:32:11.313Z,1019.9
2022-11-05T14:47:07.238Z,1019.7
2022-11-05T15:02:03.269Z,1019.8
2022-11-05T15:16:59.051Z,1019.8
2022-11-05T15:31:55.150Z,1019.9
2022-11-05T15:46:51.107Z,1020.1
2022-11-05T16:01:47.461Z,1020.2
2022-11-05T16:16:43.554Z,1020.1
2022-11-05T16:31:39.817Z,1020.3
2022-11-05T16:46:35.710Z,1020.2
2022-11-05T17:01:32.441Z,1020.3
2022-11-05T17:16:28.106Z,1020.4
2022-11-05T17:31:24.685Z,1020.5
2022-11-05T17:46:20.828Z,1020.4
2022-11-05T18:01:16.596Z,1020.4
2022-11-05T18:16:12.906Z,1020.4
2022-11-05T18:31:10.746Z,1020.5
2022-11-05T18:46:05.079Z,1020.3
2022-11-05T19:01:06.393Z,1020.3
2022-11-05T19:15:57.756Z,1020.3
2022-11-05T19:30:54.226Z,1020.3
2022-11-05T19:45:50.844Z,1020.2
2022-11-05T20:00:47.088Z,1020.2
2022-11-05T20:15:43.967Z,1020.3
2022-11-05T20:30:40.079Z,1020.3
2022-11-05T20:45:36.353Z,1020.4
2022-11-05T21:00:33.013Z,1020.6
2022-11-05T21:15:29.325Z,1020.8
2022-11-05T21:30:25.434Z,1020.7
2022-11-05T21:45:22.005Z,1020.8
2022-11-05T22:00:18.007Z,1020.6
2022-11-05T22:15:14.155Z,1020.6
2022-11-05T22:30:10.575Z,1020.2
2022-11-05T22:45:05.976Z,1020
2022-11-05T23:00:02.382Z,1019.8
2022-11-05T23:14:58.609Z,1019.8
2022-11-05T23:29:55.020Z,1019.7
2022-11-05T23:44:51.438Z,1019.6
2022-11-05T23:59:48.355Z,1019.4
